Airfield :
LOGIN :

Register | Disclaimer

   EN    FR    IT 

 










Legend :    VFR   Marginal VFR   IFR   Intensive IFR   Very Intensive IFR
Visi :
Ceiling :
>= 8 km
>= 3000ft
5 to 8 km
1000 to 3000 ft
1500m to 5 km
500 to 1000 ft
800 to 1500m
200 to 500 ft
< 800m
< 200 ft
Symbols :   Thunderstorms  Fog  Heavy snow  Heavy precipitations  Wind > 20 kt
SIGMETs :     Misc.  Thunderstorms  Icing  Turbulence  Mountain Waves  Volcanic Ashes






- Airport Elevation : 3 ft
- IATA code : DHR


EHKD - Den Helder De Kooy

CURRENT METAR :
  • 261827Z AUTO 34006KT 300V030 9999 NCD 16/10 Q1034 BLU 34007KT CAVOK

EXPIRED METARs :
  • 261755Z AUTO 32007KT 290V360 9999 FEW380 17/11 Q1034 BLU 30007KT CAVOK
  • 261725Z AUTO 33006KT 300V010 9999 BKN210 BKN380 17/11 Q1034 BLU 30007KT CAVOK
  • 261655Z AUTO 31007KT 280V340 9999 OVC095 18/11 Q1034 BLU 30007KT CAVOK
  • 261625Z AUTO 30007KT 260V330 9999 FEW100 OVC200 17/11 Q1035 BLU 30007KT CAVOK
  • 261555Z AUTO 28007KT 240V310 9999 SCT250 BKN330 BKN380 18/12 Q1035 BLU 27010KT CAVOK

TAF TAF EHKD
Valid from the 26 at 17:00 until the 27 at 05:00 UTC


261645Z 2617/2705 34005KT CAVOK
PROB40 2700/2705 4000 BR MIFG



MET'MAP, your aeronautical weather chart ! - Copyright ORBIFLY December 2007 - Disclaimer

ORBIFLY MET'MAP TEAM :

Programming & Development : Alexandra Zaïnal
Concept & original design : Baudouin d'Aumeries
Assistance for programming : Marc-Olivier Méhu
Technical & hardware support : Manuel Goepfert

Contact : metmap@orbifly.com




SOURCES & CREDITS :

   NOAA